Time;durP1;ratioP1;P1;durP2;ratioP2;P2;SDS_P1;SDS_P2;PMS_P1;PMS_P2;Temp;Humidity;BMP_temperature;BMP_pressure;BME280_temperature;BME280_humidity;BME280_pressure;Samples;Min_cycle;Max_cycle;Signal;HPM_P1;HPM_P2
2023/12/19 00:00:29;;;;;;;14.63;8.82;;;;;;;15.96;51.58;102563.63;5030700;28;20069;-42
2023/12/19 00:02:56;;;;;;;14.82;9.40;;;;;;;15.97;51.42;102551.94;5029042;28;21134;-41
2023/12/19 00:05:23;;;;;;;14.75;9.00;;;;;;;15.96;50.97;102550.25;5029403;28;20381;-43
2023/12/19 00:07:50;;;;;;;14.98;10.18;;;;;;;15.97;51.43;102543.06;5021305;28;20058;-43
2023/12/19 00:10:16;;;;;;;13.93;8.80;;;;;;;15.98;51.36;102534.09;5020272;28;20426;-41
2023/12/19 00:12:43;;;;;;;12.52;9.18;;;;;;;15.96;50.91;102538.66;5022078;28;20421;-42
2023/12/19 00:15:10;;;;;;;16.92;9.70;;;;;;;15.96;50.64;102534.19;5027939;28;20457;-42
2023/12/19 00:17:39;;;;;;;14.45;9.25;;;;;;;15.96;50.82;102541.34;5033250;28;20053;-42
2023/12/19 00:20:06;;;;;;;14.70;9.48;;;;;;;15.95;51.28;102529.78;5034817;28;20060;-42
2023/12/19 00:22:33;;;;;;;14.32;9.38;;;;;;;15.95;51.66;102526.25;5030331;28;20061;-43
2023/12/19 00:24:59;;;;;;;13.50;8.82;;;;;;;15.93;50.98;102507.66;5026949;28;20621;-43
2023/12/19 00:27:26;;;;;;;16.95;9.32;;;;;;;15.93;50.63;102504.13;5033509;28;20515;-42
2023/12/19 00:29:53;;;;;;;15.50;9.73;;;;;;;15.94;50.75;102503.16;5028564;28;21091;-41
2023/12/19 00:32:19;;;;;;;16.48;9.55;;;;;;;15.94;51.46;102497.81;5024572;28;20049;-40
2023/12/19 00:34:46;;;;;;;16.45;9.57;;;;;;;15.93;50.77;102498.78;5025610;28;20049;-42
2023/12/19 00:37:13;;;;;;;14.85;9.85;;;;;;;15.93;50.63;102496.09;5028262;28;20073;-42
2023/12/19 00:39:40;;;;;;;13.98;9.75;;;;;;;15.93;51.72;102493.41;5030705;28;20048;-43
2023/12/19 00:42:07;;;;;;;15.45;9.50;;;;;;;15.92;51.24;102499.69;5022794;28;20053;-42
2023/12/19 00:44:36;;;;;;;15.05;10.07;;;;;;;15.92;51.29;102505.03;5031457;28;20049;-43
2023/12/19 00:47:04;;;;;;;15.00;9.55;;;;;;;15.92;50.85;102499.69;5028013;28;20139;-42
2023/12/19 00:49:30;;;;;;;14.90;9.30;;;;;;;15.93;50.96;102490.75;5029420;28;20053;-42
2023/12/19 00:51:57;;;;;;;15.48;9.13;;;;;;;15.92;51.35;102484.53;5034446;28;20049;-43
2023/12/19 00:54:24;;;;;;;15.93;10.05;;;;;;;15.90;50.68;102481.09;5031736;28;20052;-42
2023/12/19 00:56:50;;;;;;;18.30;9.90;;;;;;;15.92;50.60;102476.53;5029519;28;20076;-43
2023/12/19 00:59:17;;;;;;;15.60;9.30;;;;;;;15.92;51.02;102480.97;5029522;28;20091;-42
2023/12/19 01:01:44;;;;;;;18.25;9.98;;;;;;;15.90;51.38;102472.22;5024378;28;20050;-41
2023/12/19 01:04:10;;;;;;;14.75;10.05;;;;;;;15.90;51.75;102472.22;5024370;28;20050;-40
2023/12/19 01:06:38;;;;;;;14.27;9.63;;;;;;;15.90;51.71;102472.22;5022896;28;20046;-42
2023/12/19 01:09:05;;;;;;;14.20;8.77;;;;;;;15.89;51.16;102471.38;5029606;28;20065;-42
2023/12/19 01:11:32;;;;;;;14.68;9.20;;;;;;;15.88;50.86;102472.34;5027055;28;20392;-42
2023/12/19 01:13:58;;;;;;;15.27;9.18;;;;;;;15.88;51.48;102452.72;5027223;28;20111;-42
2023/12/19 01:16:25;;;;;;;17.13;10.13;;;;;;;15.89;51.01;102460.66;5023863;28;20061;-42
2023/12/19 01:18:52;;;;;;;15.57;10.00;;;;;;;15.98;51.81;102456.53;5031060;28;20430;-43
2023/12/19 01:21:18;;;;;;;13.95;8.95;;;;;;;16.09;51.11;102454.00;5035410;28;20052;-42
2023/12/19 01:23:45;;;;;;;15.57;9.55;;;;;;;16.20;50.34;102456.84;5034186;28;20374;-40
2023/12/19 01:26:12;;;;;;;14.07;9.32;;;;;;;16.31;50.72;102452.56;5028121;28;20102;-41
2023/12/19 01:28:49;;;;;;;13.23;8.77;;;;;;;16.39;50.86;102444.88;5028954;28;20081;-42
2023/12/19 01:31:16;;;;;;;13.27;8.73;;;;;;;16.45;50.76;102439.13;5024046;28;20073;-43
2023/12/19 01:33:43;;;;;;;13.93;8.90;;;;;;;16.50;50.67;102434.31;5028596;28;20314;-40
2023/12/19 01:36:10;;;;;;;16.40;8.85;;;;;;;16.53;50.18;102442.13;5027313;28;20054;-43
2023/12/19 01:38:37;;;;;;;16.05;8.95;;;;;;;16.56;50.14;102457.13;5025566;28;20046;-42
2023/12/19 01:41:03;;;;;;;14.75;8.77;;;;;;;16.58;49.98;102445.34;5026265;28;20040;-43
2023/12/19 01:43:30;;;;;;;15.40;9.60;;;;;;;16.59;50.16;102435.50;5030407;28;20060;-41
2023/12/19 01:45:57;;;;;;;15.43;9.38;;;;;;;16.61;49.66;102430.91;5030125;28;20079;-42
2023/12/19 01:48:26;;;;;;;16.08;10.02;;;;;;;16.61;49.92;102422.88;5028905;28;20053;-42
2023/12/19 01:50:53;;;;;;;14.52;9.77;;;;;;;16.62;49.29;102421.91;5029637;28;20042;-41
2023/12/19 01:53:23;;;;;;;14.57;9.85;;;;;;;16.59;50.00;102422.97;5030661;28;20434;-42
2023/12/19 01:55:52;;;;;;;15.82;9.60;;;;;;;16.56;49.57;102419.63;5026376;28;20050;-43
2023/12/19 01:58:20;;;;;;;15.88;10.40;;;;;;;16.51;50.56;102428.00;5030554;28;20053;-40
2023/12/19 02:00:47;;;;;;;14.52;9.20;;;;;;;16.47;49.50;102427.34;5032070;28;20057;-41
2023/12/19 02:03:14;;;;;;;17.73;10.70;;;;;;;16.42;50.29;102426.81;5029477;28;20042;-42
2023/12/19 02:05:43;;;;;;;14.15;9.70;;;;;;;16.36;49.73;102423.69;5029203;28;20057;-41
2023/12/19 02:08:10;;;;;;;15.18;9.05;;;;;;;16.29;49.89;102420.59;5027794;28;20073;-42
2023/12/19 02:10:37;;;;;;;15.05;9.75;;;;;;;16.25;50.28;102424.41;5031092;28;20715;-41
2023/12/19 02:13:04;;;;;;;14.25;9.32;;;;;;;16.21;51.36;102414.88;5028678;28;20123;-43
2023/12/19 02:15:31;;;;;;;13.32;9.45;;;;;;;16.14;51.25;102394.84;5026009;28;20045;-41
2023/12/19 02:18:12;;;;;;;14.35;8.90;;;;;;;16.08;50.77;102396.13;5024837;28;20047;-42
2023/12/19 02:20:39;;;;;;;12.57;9.27;;;;;;;16.06;51.42;102406.06;5029465;28;20053;-42
2023/12/19 02:23:06;;;;;;;17.73;9.75;;;;;;;16.02;51.66;102399.22;5029105;28;20081;-42
2023/12/19 02:25:32;;;;;;;12.23;8.05;;;;;;;15.97;51.82;102390.66;5033824;28;20140;-43
2023/12/19 02:28:00;;;;;;;13.43;8.30;;;;;;;15.96;51.23;102388.91;5031693;28;20073;-42
2023/12/19 02:30:27;;;;;;;12.90;8.23;;;;;;;15.93;51.51;102375.75;5033074;28;20049;-41
2023/12/19 02:32:54;;;;;;;12.45;8.18;;;;;;;16.00;50.81;102359.22;5033224;28;20049;-42
2023/12/19 02:35:21;;;;;;;12.93;7.97;;;;;;;16.13;51.66;102363.72;5021524;28;20050;-43
2023/12/19 02:37:47;;;;;;;11.55;8.25;;;;;;;16.23;50.59;102365.66;5023143;28;20041;-42
2023/12/19 02:40:14;;;;;;;13.70;8.07;;;;;;;16.35;50.70;102352.41;5028361;28;20111;-42
2023/12/19 02:42:41;;;;;;;13.02;7.50;;;;;;;16.44;51.24;102346.41;5024030;28;20053;-41
2023/12/19 02:45:10;;;;;;;11.98;7.80;;;;;;;16.53;49.93;102335.09;5029765;28;20080;-41
2023/12/19 02:47:37;;;;;;;12.63;8.23;;;;;;;16.61;50.02;102330.03;5027795;28;20061;-42
2023/12/19 02:50:04;;;;;;;11.48;7.90;;;;;;;16.68;50.07;102342.03;5029382;28;20044;-42
2023/12/19 02:52:30;;;;;;;12.00;7.05;;;;;;;16.74;50.36;102335.41;5031625;28;20128;-42
2023/12/19 02:54:57;;;;;;;11.35;7.43;;;;;;;16.77;50.65;102330.69;5033141;28;20053;-42
2023/12/19 02:57:24;;;;;;;12.27;7.95;;;;;;;16.82;49.39;102321.47;5031578;28;20152;-37
2023/12/19 02:59:50;;;;;;;11.23;7.15;;;;;;;16.85;49.86;102326.63;5033931;28;20053;-37
2023/12/19 03:02:17;;;;;;;11.40;7.47;;;;;;;16.85;49.92;102303.38;5032421;28;20091;-38
2023/12/19 03:04:43;;;;;;;12.40;7.68;;;;;;;16.87;49.87;102303.25;5034244;28;20153;-37
2023/12/19 03:07:11;;;;;;;10.70;7.45;;;;;;;16.88;49.77;102311.16;5035339;28;20049;-37
2023/12/19 03:09:38;;;;;;;11.77;7.78;;;;;;;16.90;49.31;102297.69;5029084;28;20100;-38
2023/12/19 03:12:06;;;;;;;13.48;7.63;;;;;;;16.90;49.30;102295.00;5034286;28;20045;-38
2023/12/19 03:14:34;;;;;;;10.25;6.93;;;;;;;16.90;49.31;102292.34;5028229;28;20111;-38
2023/12/19 03:17:03;;;;;;;10.65;7.10;;;;;;;16.91;49.67;102294.03;5028140;28;20139;-36
2023/12/19 03:19:29;;;;;;;11.18;6.88;;;;;;;16.92;50.04;102293.06;5028112;28;20057;-37
2023/12/19 03:21:56;;;;;;;11.45;7.30;;;;;;;16.90;49.96;102287.81;5037856;28;20049;-38
2023/12/19 03:24:23;;;;;;;12.75;7.50;;;;;;;16.90;49.06;102282.47;5032549;28;20136;-37
2023/12/19 03:26:50;;;;;;;14.40;6.72;;;;;;;16.89;49.61;102272.72;5033155;28;20128;-38
2023/12/19 03:29:16;;;;;;;11.48;7.25;;;;;;;16.90;49.55;102270.91;5031270;28;20192;-36
2023/12/19 03:31:43;;;;;;;11.25;7.82;;;;;;;16.89;49.87;102266.53;5031963;28;20124;-36
2023/12/19 03:34:10;;;;;;;11.10;7.47;;;;;;;16.87;49.65;102253.22;5033974;28;20132;-42
2023/12/19 03:36:37;;;;;;;10.02;6.97;;;;;;;16.87;49.90;102253.22;5031517;28;20049;-43
2023/12/19 03:39:04;;;;;;;11.45;6.75;;;;;;;16.86;49.31;102240.81;5027713;28;20115;-42
2023/12/19 03:41:30;;;;;;;11.02;6.97;;;;;;;16.86;49.21;102250.69;5028627;28;20045;-41
2023/12/19 03:43:57;;;;;;;9.80;6.90;;;;;;;16.85;50.06;102243.63;5029629;28;20076;-41
2023/12/19 03:46:23;;;;;;;10.98;7.15;;;;;;;16.87;50.01;102241.66;5032243;28;20231;-42
2023/12/19 03:48:50;;;;;;;10.30;6.53;;;;;;;16.85;49.64;102238.25;5033101;28;20110;-41
2023/12/19 03:51:17;;;;;;;10.60;6.72;;;;;;;16.85;48.97;102235.59;5026032;28;20049;-43
2023/12/19 03:53:43;;;;;;;11.18;7.22;;;;;;;16.85;49.63;102224.88;5030762;28;20061;-43
2023/12/19 03:56:10;;;;;;;9.45;6.38;;;;;;;16.86;49.20;102218.53;5028882;28;20050;-42
2023/12/19 03:58:39;;;;;;;9.15;6.30;;;;;;;16.87;49.59;102207.69;5029025;28;20435;-43
2023/12/19 04:01:06;;;;;;;9.93;6.05;;;;;;;16.88;50.08;102196.00;5027649;28;20041;-37
2023/12/19 04:03:32;;;;;;;9.43;6.32;;;;;;;16.89;49.79;102195.06;5030285;28;20057;-43
2023/12/19 04:05:59;;;;;;;9.80;6.35;;;;;;;16.92;49.58;102196.66;5031370;28;20140;-36
2023/12/19 04:08:26;;;;;;;10.20;6.18;;;;;;;16.97;49.74;102199.88;5034025;28;20053;-37
2023/12/19 04:10:53;;;;;;;10.23;5.75;;;;;;;17.00;49.31;102195.13;5037745;28;20437;-37
2023/12/19 04:13:19;;;;;;;11.00;6.28;;;;;;;17.05;49.09;102180.53;5025417;28;20045;-37
2023/12/19 04:15:46;;;;;;;10.73;6.25;;;;;;;17.07;49.35;102189.31;5024299;28;20058;-39
2023/12/19 04:18:14;;;;;;;10.02;6.15;;;;;;;17.10;48.91;102175.69;5023726;28;20140;-37
2023/12/19 04:20:41;;;;;;;7.15;5.15;;;;;;;17.12;49.20;102171.91;5026107;28;20367;-37
2023/12/19 04:23:09;;;;;;;8.25;5.50;;;;;;;17.13;49.14;102173.63;5028459;28;20168;-37
2023/12/19 04:25:36;;;;;;;8.90;5.20;;;;;;;17.16;49.39;102173.38;5026993;28;20054;-38
2023/12/19 04:28:02;;;;;;;9.27;5.70;;;;;;;17.17;49.74;102177.81;5029942;28;20050;-38
2023/12/19 04:30:29;;;;;;;8.30;5.28;;;;;;;17.17;49.56;102164.41;5029531;28;20056;-39
2023/12/19 04:32:56;;;;;;;10.48;5.47;;;;;;;17.17;49.23;102172.44;5029191;28;20045;-37
2023/12/19 04:35:23;;;;;;;10.23;5.80;;;;;;;17.16;49.24;102178.75;5029213;28;20412;-37
2023/12/19 04:37:49;;;;;;;8.15;5.38;;;;;;;17.15;49.69;102166.31;5036330;28;20103;-36
2023/12/19 04:40:16;;;;;;;7.45;5.28;;;;;;;17.15;49.30;102160.13;5033881;28;20122;-38
2023/12/19 04:42:42;;;;;;;9.00;5.75;;;;;;;17.14;49.15;102169.13;5032109;28;20107;-36
2023/12/19 04:45:09;;;;;;;7.75;5.38;;;;;;;17.13;49.33;102156.72;5032661;28;20045;-39
2023/12/19 04:47:36;;;;;;;7.22;4.90;;;;;;;17.12;49.88;102163.88;5031262;28;20076;-39
2023/12/19 04:50:03;;;;;;;9.57;5.57;;;;;;;17.11;49.40;102145.25;5030705;28;20052;-39
2023/12/19 04:52:30;;;;;;;7.97;5.07;;;;;;;17.10;49.44;102143.53;5034088;28;20176;-39
2023/12/19 04:54:56;;;;;;;7.50;4.90;;;;;;;17.09;49.09;102140.03;5034741;28;20106;-38
2023/12/19 04:57:23;;;;;;;8.00;5.18;;;;;;;17.08;49.86;102143.66;5031402;28;20041;-38
2023/12/19 04:59:50;;;;;;;8.63;5.00;;;;;;;17.07;49.64;102131.22;5027270;28;20081;-39
2023/12/19 05:02:16;;;;;;;7.15;4.68;;;;;;;17.06;49.52;102134.88;5033317;28;20448;-37
2023/12/19 05:04:44;;;;;;;6.60;4.50;;;;;;;17.05;49.94;102127.81;5028773;28;20454;-38
2023/12/19 05:07:10;;;;;;;6.80;4.65;;;;;;;17.03;49.60;102129.75;5030389;28;20463;-37
2023/12/19 05:09:37;;;;;;;6.43;4.20;;;;;;;17.02;49.98;102141.44;5034552;28;20345;-38
2023/12/19 05:12:04;;;;;;;7.47;4.75;;;;;;;17.02;49.82;102138.75;5030570;28;20430;-37
2023/12/19 05:14:31;;;;;;;7.38;4.35;;;;;;;17.00;49.66;102140.69;5030940;28;20053;-38
2023/12/19 05:16:59;;;;;;;6.45;4.13;;;;;;;17.00;49.78;102132.66;5033816;28;20053;-39
2023/12/19 05:19:26;;;;;;;7.63;4.40;;;;;;;16.99;49.84;102145.19;5031956;28;20053;-37
2023/12/19 05:21:53;;;;;;;7.40;4.00;;;;;;;16.98;49.71;102140.81;5031519;28;20045;-38
2023/12/19 05:24:19;;;;;;;4.97;3.70;;;;;;;16.99;49.97;102147.03;5030758;28;20179;-37
2023/12/19 05:26:46;;;;;;;5.35;4.15;;;;;;;16.99;49.50;102130.94;5029495;28;20049;-37
2023/12/19 05:29:13;;;;;;;7.25;4.50;;;;;;;17.00;50.09;102130.84;5033047;28;20076;-36
2023/12/19 05:31:40;;;;;;;5.63;3.83;;;;;;;17.03;50.13;102125.25;5029800;28;20050;-36
2023/12/19 05:34:06;;;;;;;6.68;4.28;;;;;;;17.06;49.76;102132.22;5029630;28;20388;-38
2023/12/19 05:36:34;;;;;;;6.18;3.63;;;;;;;17.07;49.84;102125.88;5028942;28;20338;-36
2023/12/19 05:39:06;;;;;;;8.38;3.72;;;;;;;17.09;49.73;102125.78;5027784;28;20046;-37
2023/12/19 05:41:33;;;;;;;5.75;4.05;;;;;;;17.10;49.98;102119.44;5023171;28;20045;-36
2023/12/19 05:44:00;;;;;;;7.03;4.07;;;;;;;17.10;49.47;102119.44;5026602;28;20050;-37
2023/12/19 05:46:28;;;;;;;6.60;4.82;;;;;;;17.10;49.62;102111.41;5026706;28;20053;-39
2023/12/19 05:48:55;;;;;;;5.35;3.97;;;;;;;17.10;49.54;102112.25;5027015;28;20440;-38
2023/12/19 05:51:21;;;;;;;8.27;4.40;;;;;;;17.10;49.81;102101.53;5025263;28;20041;-36
2023/12/19 05:53:49;;;;;;;5.80;4.50;;;;;;;17.09;49.91;102097.16;5023529;28;20049;-37
2023/12/19 05:56:16;;;;;;;6.57;4.50;;;;;;;17.09;49.93;102099.84;5017336;28;20564;-37
2023/12/19 05:58:44;;;;;;;7.85;5.20;;;;;;;17.09;50.10;102093.63;5019489;28;20081;-37
2023/12/19 06:01:11;;;;;;;6.20;4.15;;;;;;;17.09;49.91;102085.59;5024284;28;20046;-37
2023/12/19 06:03:38;;;;;;;7.75;5.05;;;;;;;17.08;49.88;102090.06;5019066;28;20045;-36
2023/12/19 06:06:05;;;;;;;7.38;5.15;;;;;;;17.07;49.59;102083.00;5025031;28;20072;-37
2023/12/19 06:08:31;;;;;;;6.75;5.18;;;;;;;17.08;50.31;102079.34;5024366;28;20711;-37
2023/12/19 06:10:58;;;;;;;6.10;4.53;;;;;;;17.08;50.11;102078.50;5025723;28;20445;-36
2023/12/19 06:13:26;;;;;;;5.97;4.22;;;;;;;17.09;49.82;102077.56;5025187;28;20055;-36
2023/12/19 06:15:52;;;;;;;6.63;4.65;;;;;;;17.10;50.03;102072.06;5024926;28;20398;-37
2023/12/19 06:18:19;;;;;;;6.32;4.63;;;;;;;17.12;50.37;102070.09;5017349;28;20049;-37
2023/12/19 06:20:46;;;;;;;8.32;5.25;;;;;;;17.16;50.15;102068.06;5020990;28;20042;-38
2023/12/19 06:23:13;;;;;;;9.35;5.90;;;;;;;17.18;49.78;102069.66;5022496;28;20388;-38
2023/12/19 06:25:39;;;;;;;8.27;5.43;;;;;;;17.19;50.08;102070.50;5023769;28;20056;-37
2023/12/19 06:28:06;;;;;;;7.93;5.28;;;;;;;17.20;49.86;102066.84;5023280;28;20134;-38
2023/12/19 06:30:33;;;;;;;8.45;5.53;;;;;;;17.20;49.63;102062.34;5027737;28;20045;-38
2023/12/19 06:33:03;;;;;;;7.65;5.10;;;;;;;17.21;49.42;102053.34;5029248;28;20045;-37
2023/12/19 06:35:31;;;;;;;8.93;5.82;;;;;;;17.21;49.88;102057.84;5028473;28;20053;-37
2023/12/19 06:37:58;;;;;;;10.45;6.60;;;;;;;17.20;50.26;102056.97;5033016;28;20060;-38
2023/12/19 06:40:24;;;;;;;8.00;6.20;;;;;;;17.20;50.06;102066.84;5028903;28;20057;-38
2023/12/19 06:42:51;;;;;;;9.15;5.95;;;;;;;17.20;49.61;102061.47;5025989;28;20076;-37
2023/12/19 06:45:18;;;;;;;11.55;6.68;;;;;;;17.19;49.74;102063.31;5028662;28;20344;-39
2023/12/19 06:47:46;;;;;;;10.50;7.00;;;;;;;17.19;49.65;102054.44;5026641;28;20446;-38
2023/12/19 06:50:13;;;;;;;9.93;6.18;;;;;;;17.19;50.19;102051.75;5030389;28;20049;-36
2023/12/19 06:52:40;;;;;;;11.00;6.60;;;;;;;17.18;49.98;102052.72;5029595;28;20044;-38
2023/12/19 06:55:11;;;;;;;10.02;6.82;;;;;;;17.19;49.57;102049.06;5025249;28;20054;-37
2023/12/19 06:57:38;;;;;;;11.45;7.43;;;;;;;17.21;49.66;102034.59;5025435;28;20454;-37
2023/12/19 07:00:06;;;;;;;11.45;6.95;;;;;;;17.22;49.84;102041.66;5026964;28;20057;-37
2023/12/19 07:02:35;;;;;;;10.27;7.05;;;;;;;17.24;50.32;102036.16;5024997;28;20055;-37
2023/12/19 07:05:03;;;;;;;9.73;6.93;;;;;;;17.27;49.44;102027.88;5028732;28;20045;-36
2023/12/19 07:07:29;;;;;;;11.88;6.85;;;;;;;17.28;49.49;102030.44;5021117;28;20049;-36
2023/12/19 07:09:56;;;;;;;13.25;8.13;;;;;;;17.34;49.67;102036.31;5023647;28;20057;-37
2023/12/19 07:12:23;;;;;;;12.50;8.10;;;;;;;17.36;50.00;102037.88;5032541;28;20052;-38
2023/12/19 07:14:49;;;;;;;12.88;7.45;;;;;;;17.41;49.52;102037.56;5029056;28;20520;-37
2023/12/19 07:17:16;;;;;;;11.52;7.63;;;;;;;17.47;49.47;102037.91;5024636;28;20699;-38
2023/12/19 07:19:43;;;;;;;12.32;8.00;;;;;;;17.55;49.39;102033.78;5027984;28;20084;-37
2023/12/19 07:22:10;;;;;;;12.43;8.13;;;;;;;17.63;49.62;102040.22;5027021;28;20617;-37
2023/12/19 07:24:38;;;;;;;11.93;7.90;;;;;;;17.71;49.48;102032.41;5023293;28;20060;-36
2023/12/19 07:27:04;;;;;;;12.25;8.35;;;;;;;17.80;49.35;102032.69;5029092;28;20124;-36
2023/12/19 07:29:31;;;;;;;11.98;8.18;;;;;;;17.87;48.98;102028.53;5027617;28;20138;-36
2023/12/19 07:32:01;;;;;;;12.20;8.13;;;;;;;17.94;48.85;102011.84;5018564;28;20049;-36
2023/12/19 07:34:27;;;;;;;15.00;9.32;;;;;;;18.02;48.92;102024.63;5024236;28;20148;-36
2023/12/19 07:36:54;;;;;;;17.65;9.57;;;;;;;18.09;48.91;102024.97;5026297;28;20049;-36
2023/12/19 07:39:21;;;;;;;15.38;10.13;;;;;;;18.15;48.98;102028.00;5024831;28;20381;-37
2023/12/19 07:41:47;;;;;;;15.30;9.30;;;;;;;18.21;48.62;102027.53;5025576;28;20461;-36
2023/12/19 07:44:16;;;;;;;14.57;8.93;;;;;;;18.28;48.61;102024.31;5027773;28;20072;-36
2023/12/19 07:46:42;;;;;;;10.88;7.50;;;;;;;18.34;48.50;102023.81;5030609;28;20192;-37
2023/12/19 07:49:10;;;;;;;17.75;8.98;;;;;;;18.38;48.40;102030.66;5025210;28;20501;-39
2023/12/19 07:51:37;;;;;;;12.57;7.90;;;;;;;18.43;48.66;102021.22;5027003;28;20057;-37
2023/12/19 07:54:04;;;;;;;13.63;8.18;;;;;;;18.45;48.21;102019.28;5030651;28;20128;-38
2023/12/19 07:56:31;;;;;;;12.50;8.48;;;;;;;18.48;48.23;102029.72;5024077;28;20128;-37
2023/12/19 07:58:58;;;;;;;12.35;8.63;;;;;;;18.49;48.24;102017.16;5028264;28;20053;-38
2023/12/19 08:01:25;;;;;;;11.77;8.13;;;;;;;18.49;48.25;102011.78;5024574;28;20045;-36
2023/12/19 08:03:52;;;;;;;12.75;7.80;;;;;;;18.48;48.10;102015.47;5024203;28;20624;-37
2023/12/19 08:06:19;;;;;;;13.20;8.40;;;;;;;18.44;48.04;102017.53;5021496;28;20049;-36
2023/12/19 08:08:49;;;;;;;12.63;7.40;;;;;;;18.41;47.99;102017.81;5027017;28;20103;-36
2023/12/19 08:11:16;;;;;;;12.55;8.13;;;;;;;18.35;48.48;101994.16;5023208;28;20430;-36
2023/12/19 08:13:43;;;;;;;11.98;7.72;;;;;;;18.30;48.13;102003.59;5028573;28;20053;-37
2023/12/19 08:16:10;;;;;;;14.38;8.40;;;;;;;18.22;48.30;102002.38;5030055;28;20071;-37
2023/12/19 08:18:37;;;;;;;11.40;7.20;;;;;;;18.17;48.35;102001.91;5030605;28;20061;-36
2023/12/19 08:21:04;;;;;;;12.55;7.72;;;;;;;18.10;48.38;101992.66;5030180;28;20045;-37
2023/12/19 08:23:31;;;;;;;11.10;6.95;;;;;;;18.06;48.94;101990.34;5025105;28;20046;-36
2023/12/19 08:25:57;;;;;;;10.95;7.30;;;;;;;18.01;48.88;101993.44;5026384;28;20429;-38
2023/12/19 08:28:24;;;;;;;10.00;6.55;;;;;;;17.95;48.70;101997.44;5022211;28;20077;-37
2023/12/19 08:30:51;;;;;;;12.77;7.30;;;;;;;17.89;48.78;101992.59;5023206;28;20456;-38
2023/12/19 08:33:17;;;;;;;12.95;7.88;;;;;;;17.86;48.73;101989.31;5026468;28;20053;-37
2023/12/19 08:35:46;;;;;;;12.18;7.38;;;;;;;17.81;49.21;101996.84;5028441;28;20738;-36
2023/12/19 08:38:13;;;;;;;10.35;7.15;;;;;;;17.78;49.27;101991.75;5025293;28;20123;-38
2023/12/19 08:40:39;;;;;;;9.65;6.90;;;;;;;17.75;49.29;101988.31;5026070;28;20053;-36
2023/12/19 08:43:06;;;;;;;10.25;6.80;;;;;;;17.76;49.17;101987.34;5026729;28;20050;-36
2023/12/19 08:45:32;;;;;;;9.43;6.40;;;;;;;17.82;48.91;101996.75;5027333;28;20057;-36
2023/12/19 08:47:59;;;;;;;9.18;5.85;;;;;;;17.87;49.00;101983.81;5021705;28;20077;-37
2023/12/19 08:50:26;;;;;;;8.80;5.93;;;;;;;17.92;49.36;101976.22;5027251;28;20056;-36
2023/12/19 08:52:53;;;;;;;9.48;6.43;;;;;;;17.98;49.00;101972.22;5027942;28;20159;-37
2023/12/19 08:55:20;;;;;;;8.88;6.40;;;;;;;18.03;48.96;101964.63;5021186;28;20472;-36
2023/12/19 08:57:47;;;;;;;8.80;6.00;;;;;;;18.08;48.90;101974.97;5020125;28;20112;-38
2023/12/19 09:00:19;;;;;;;9.20;5.82;;;;;;;18.12;48.97;101968.38;5021413;28;20064;-37
2023/12/19 09:02:47;;;;;;;9.13;6.03;;;;;;;18.14;48.87;101969.97;5023827;28;20240;-37
2023/12/19 09:05:16;;;;;;;8.90;5.95;;;;;;;18.17;48.82;101969.72;5025069;28;20053;-38
2023/12/19 09:07:44;;;;;;;11.63;6.13;;;;;;;18.19;48.92;101966.91;5028611;28;20077;-36
2023/12/19 09:10:12;;;;;;;8.23;5.93;;;;;;;18.21;48.82;101959.56;5025249;28;20118;-38
2023/12/19 09:12:39;;;;;;;9.02;5.93;;;;;;;18.19;48.91;101961.53;5036319;28;20411;-39
2023/12/19 09:15:07;;;;;;;8.18;5.75;;;;;;;18.17;48.34;101963.47;5018656;28;20141;-38
2023/12/19 09:17:34;;;;;;;8.85;5.82;;;;;;;18.13;48.61;101960.22;5023852;28;20430;-38
2023/12/19 09:20:05;;;;;;;9.45;6.05;;;;;;;18.08;48.42;101959.72;5025885;28;20053;-37
2023/12/19 09:22:32;;;;;;;9.55;6.28;;;;;;;18.05;48.58;101962.69;5024045;28;20451;-37
2023/12/19 09:24:59;;;;;;;10.50;6.03;;;;;;;18.01;48.76;101958.56;5025109;28;20063;-37
2023/12/19 09:27:26;;;;;;;8.48;5.65;;;;;;;17.98;49.28;101961.47;5022238;28;20279;-38
2023/12/19 09:29:53;;;;;;;8.00;5.38;;;;;;;17.94;49.26;101954.66;5028189;28;20053;-38
2023/12/19 09:32:21;;;;;;;8.63;5.47;;;;;;;17.90;49.37;101956.75;5019914;28;20042;-38
2023/12/19 09:34:49;;;;;;;8.23;6.03;;;;;;;17.86;49.26;101944.56;5026432;28;20053;-37
2023/12/19 09:37:16;;;;;;;7.18;5.38;;;;;;;17.81;49.13;101946.78;5021875;28;20061;-38
2023/12/19 09:39:46;;;;;;;7.00;4.97;;;;;;;17.79;49.28;101945.19;5022755;28;20440;-39
2023/12/19 09:42:17;;;;;;;9.27;5.70;;;;;;;17.75;49.28;101945.41;5020745;28;20049;-41
2023/12/19 09:44:44;;;;;;;7.57;5.03;;;;;;;17.72;49.57;101940.28;5023327;28;20191;-38
2023/12/19 09:47:15;;;;;;;6.97;5.38;;;;;;;17.70;49.70;101931.50;5025895;28;20146;-38
2023/12/19 09:49:43;;;;;;;7.18;4.75;;;;;;;17.68;49.47;101929.91;5025614;28;20045;-39
2023/12/19 09:52:12;;;;;;;9.15;5.72;;;;;;;17.69;49.47;101934.34;5025253;28;20140;-39
2023/12/19 09:54:40;;;;;;;6.78;5.07;;;;;;;17.68;49.16;101922.72;5029355;28;20053;-37
2023/12/19 09:57:08;;;;;;;7.82;5.13;;;;;;;17.69;49.63;101924.44;5019499;28;20057;-37
2023/12/19 09:59:36;;;;;;;6.93;4.90;;;;;;;17.71;49.45;101930.53;5023311;28;20112;-37
2023/12/19 10:02:08;;;;;;;;;;;;;;;17.71;49.75;101918.97;5022414;28;20053;-38
2023/12/19 10:04:34;;;;;;;7.07;4.65;;;;;;;17.76;49.32;101922.13;5025274;28;20488;-38
2023/12/19 10:07:01;;;;;;;6.75;4.78;;;;;;;17.75;49.65;101915.94;5026227;28;20053;-38
2023/12/19 10:09:28;;;;;;;7.22;4.53;;;;;;;17.75;49.39;101921.28;5025970;28;20894;-40
2023/12/19 10:12:21;;;;;;;6.85;4.50;;;;;;;17.73;49.76;101923.22;5026487;28;20347;-37
2023/12/19 10:14:48;;;;;;;6.45;4.60;;;;;;;17.74;49.80;101921.41;5024326;28;20144;-38
2023/12/19 10:17:17;;;;;;;8.20;4.97;;;;;;;17.74;49.38;101916.03;5025538;28;20083;-37
2023/12/19 10:19:45;;;;;;;5.78;4.30;;;;;;;17.74;49.56;101905.31;5025884;28;20448;-37
2023/12/19 10:22:16;;;;;;;8.07;4.80;;;;;;;17.76;49.84;101898.84;5022235;28;20065;-39
2023/12/19 10:24:43;;;;;;;5.75;4.20;;;;;;;17.82;49.43;101888.63;5021358;28;20076;-37
2023/12/19 10:27:10;;;;;;;6.72;3.95;;;;;;;17.87;49.18;101884.56;5019449;28;20053;-38
2023/12/19 10:29:37;;;;;;;6.25;4.20;;;;;;;17.96;49.39;101894.53;5019446;28;20107;-38
2023/12/19 10:32:16;;;;;;;6.70;4.68;;;;;;;18.04;49.68;101871.56;5019417;28;20042;-37
2023/12/19 10:34:44;;;;;;;6.85;4.60;;;;;;;18.13;48.90;101877.03;5022578;28;20107;-38
2023/12/19 10:37:13;;;;;;;6.85;4.55;;;;;;;18.20;49.02;101863.94;5026021;28;20132;-37
2023/12/19 10:39:41;;;;;;;7.07;4.32;;;;;;;18.28;49.30;101857.91;5022808;28;20084;-38
2023/12/19 10:42:11;;;;;;;6.75;4.55;;;;;;;18.33;49.01;101851.19;5022784;28;20064;-38
2023/12/19 10:44:42;;;;;;;9.32;5.43;;;;;;;18.39;49.42;101852.50;5023081;28;20366;-38
2023/12/19 10:47:10;;;;;;;7.05;3.90;;;;;;;18.44;48.99;101836.84;5021873;28;20049;-39
2023/12/19 10:49:38;;;;;;;6.80;4.63;;;;;;;18.47;48.95;101844.63;5026468;28;20088;-38
2023/12/19 10:52:09;;;;;;;6.75;4.25;;;;;;;18.49;49.00;101840.84;5022681;28;20058;-37
2023/12/19 10:54:37;;;;;;;7.88;4.53;;;;;;;18.49;49.15;101827.44;5027631;28;20045;-37
2023/12/19 10:57:16;;;;;;;6.22;4.25;;;;;;;18.49;48.83;101831.91;5019802;28;20131;-38
2023/12/19 10:59:58;;;;;;;6.68;4.00;;;;;;;18.46;48.71;101834.88;5020358;28;20100;-37
2023/12/19 11:02:27;;;;;;;6.22;3.92;;;;;;;18.43;48.86;101827.09;5026645;28;20057;-38
2023/12/19 11:05:10;;;;;;;6.60;4.30;;;;;;;18.37;48.86;101830.28;5028847;28;20045;-38
2023/12/19 11:07:38;;;;;;;7.30;4.20;;;;;;;18.32;49.10;101822.63;5027835;28;20145;-40
2023/12/19 11:10:08;;;;;;;7.35;4.28;;;;;;;18.28;48.75;101814.97;5026764;28;20135;-39
2023/12/19 11:12:37;;;;;;;5.85;3.72;;;;;;;18.22;49.04;101806.47;5023696;28;20049;-41
2023/12/19 11:15:05;;;;;;;9.57;4.03;;;;;;;18.17;49.35;101795.31;5025970;28;20054;-41
2023/12/19 11:17:58;;;;;;;6.57;3.97;;;;;;;18.12;48.96;101797.50;5024042;28;20053;-37
2023/12/19 11:20:30;;;;;;;5.03;3.35;;;;;;;18.10;49.27;101804.00;5025993;28;20053;-38
2023/12/19 11:23:11;;;;;;;4.82;3.67;;;;;;;18.05;49.05;101796.34;5026280;28;20121;-38